Time;durP1;ratioP1;P1;durP2;ratioP2;P2;SDS_P1;SDS_P2;PMS_P1;PMS_P2;Temp;Humidity;BMP_temperature;BMP_pressure;BME280_temperature;BME280_humidity;BME280_pressure;Samples;Min_cycle;Max_cycle;Signal;HPM_P1;HPM_P2
2021/05/23 17:33:05;;;;;;;;;0.25;0.00;;;;;21.19;35.93;100789.50;5008592;28;45716;-57
2021/05/23 17:35:30;;;;;;;;;1.50;0.00;;;;;20.86;36.26;100788.34;4991278;27;45350;-58
2021/05/23 17:39:13;;;;;;;;;0.25;0.25;;;;;20.10;36.66;100741.50;5068936;28;45445;-71
2021/05/23 17:42:28;;;;;;;;;0.00;0.00;;;;;19.94;36.51;100733.59;5035165;28;45843;-63
2021/05/23 17:44:56;;;;;;;;;0.00;0.00;;;;;19.67;36.43;100728.28;5034945;28;45355;-63
2021/05/23 17:47:32;;;;;;;;;1.00;1.00;;;;;19.62;36.54;100739.44;5037510;28;45427;-63
2021/05/23 17:50:49;;;;;;;;;0.00;0.00;;;;;19.60;36.98;100766.63;5036235;28;46890;-64
2021/05/23 17:53:21;;;;;;;;;1.00;1.00;;;;;19.45;36.86;100762.28;4999146;28;45693;-63
2021/05/23 17:56:11;;;;;;;;;0.00;0.00;;;;;19.45;36.52;100773.09;5018136;28;46144;-63
2021/05/23 17:58:49;;;;;;;;;;;;;;;;;;;;;
2021/05/23 18:01:27;;;;;;;;;;;;;;;;;;;;;
2021/05/23 18:03:56;;;;;;;;;0.00;0.00;;;;;18.81;36.67;100714.28;5049855;28;71556;-63
2021/05/23 18:06:25;;;;;;;;;1.00;0.00;;;;;19.06;36.73;100756.78;5032989;28;45490;-63
2021/05/23 18:08:50;;;;;;;;;0.00;0.00;;;;;19.08;36.97;100775.63;5036507;28;45925;-61
2021/05/23 18:11:16;;;;;;;;;0.00;0.00;;;;;18.72;36.85;100717.59;5033151;28;48143;-61
2021/05/23 18:13:41;;;;;;;;;0.00;0.00;;;;;19.04;36.75;100776.78;5033162;28;45401;-62
2021/05/23 18:16:07;;;;;;;;;0.00;0.00;;;;;18.70;36.97;100719.53;5038614;28;45764;-63
2021/05/23 18:18:33;;;;;;;;;0.75;0.00;;;;;18.74;37.14;100731.00;5042894;28;46052;-60
2021/05/23 18:20:58;;;;;;;;;0.75;0.00;;;;;18.66;37.12;100718.88;5044042;28;46048;-62
2021/05/23 18:23:24;;;;;;;;;0.50;0.50;;;;;18.72;37.87;100731.09;5050421;28;45474;-62
2021/05/23 18:25:49;;;;;;;;;1.25;0.00;;;;;18.62;38.34;100727.28;5045788;28;45465;-63
2021/05/23 18:28:15;;;;;;;;;2.00;1.00;;;;;18.60;38.41;100729.22;5051811;28;45487;-62
2021/05/23 18:30:40;;;;;;;;;2.25;1.75;;;;;18.62;39.13;100738.09;5044808;28;46027;-62
2021/05/23 18:33:06;;;;;;;;;1.75;1.75;;;;;18.80;39.57;100777.44;5036522;28;45580;-62
2021/05/23 18:35:32;;;;;;;;;3.00;2.50;;;;;18.41;40.14;100716.03;5036250;28;45885;-62
2021/05/23 18:38:06;;;;;;;;;3.00;2.75;;;;;18.63;39.98;100756.06;5047313;28;46527;-65
2021/05/23 18:40:55;;;;;;;;;2.50;2.50;;;;;18.62;39.99;100752.47;5015115;28;46611;-65
2021/05/23 18:43:23;;;;;;;;;2.75;2.00;;;;;18.55;40.57;100756.56;5045658;28;45636;-66
2021/05/23 18:45:48;;;;;;;;;1.50;1.50;;;;;18.64;40.76;100766.78;5045745;28;45614;-62
2021/05/23 18:48:17;;;;;;;;;0.25;0.25;;;;;18.47;40.63;100750.78;5039891;28;45751;-63
2021/05/23 18:50:43;;;;;;;;;0.00;0.00;;;;;18.37;41.08;100731.59;5016939;28;46145;-63
2021/05/23 18:53:11;;;;;;;;;0.25;0.25;;;;;18.44;41.11;100742.88;5034250;28;45543;-64
2021/05/23 18:55:36;;;;;;;;;0.50;0.50;;;;;18.47;41.31;100754.34;5019632;28;45723;-63
2021/05/23 18:58:01;;;;;;;;;0.00;0.00;;;;;18.13;41.32;100701.66;5022562;28;45610;-63
2021/05/23 19:00:27;;;;;;;;;0.00;0.00;;;;;18.27;41.31;100720.50;5031853;28;45892;-63
2021/05/23 19:02:52;;;;;;;;;0.25;0.25;;;;;18.32;41.81;100741.84;5032744;28;45619;-62
2021/05/23 19:05:20;;;;;;;;;0.00;0.00;;;;;18.50;41.57;100770.38;5045765;28;45452;-62
2021/05/23 19:07:45;;;;;;;;;0.00;0.00;;;;;18.37;41.40;100758.63;5050027;28;45952;-62
2021/05/23 19:10:11;;;;;;;;;0.00;0.00;;;;;18.45;41.68;100774.34;5036345;28;48216;-62
2021/05/23 19:12:40;;;;;;;;;0.50;0.50;;;;;18.25;42.02;100748.59;5030108;28;45425;-64
2021/05/23 19:15:07;;;;;;;;;0.50;0.00;;;;;18.32;41.77;100766.16;5018287;28;45765;-64
2021/05/23 19:17:34;;;;;;;;;0.00;0.00;;;;;18.32;41.61;100761.59;5028572;28;45832;-64
2021/05/23 19:20:29;;;;;;;;;0.25;0.25;;;;;18.36;41.54;100764.13;5032666;28;47946;-64
2021/05/23 19:23:03;;;;;;;;;0.25;0.25;;;;;18.13;41.51;100737.63;5007659;28;45791;-65
2021/05/23 19:25:48;;;;;;;;;;;;;;;;;;;;;
2021/05/23 19:28:26;;;;;;;;;;;;;;;;;;;;;
2021/05/23 19:30:54;;;;;;;;;1.00;1.00;;;;;18.35;42.29;100754.28;5035045;28;75688;-65
2021/05/23 19:33:35;;;;;;;;;1.50;1.50;;;;;18.02;42.28;100710.41;5036008;28;45763;-65
2021/05/23 19:36:12;;;;;;;;;2.00;1.25;;;;;18.19;42.63;100740.88;5033001;28;45487;-65
2021/05/23 19:38:54;;;;;;;;;;;;;;;;;;;;;
2021/05/23 19:41:47;;;;;;;;;0.50;0.50;;;;;18.07;42.42;100727.19;5027707;28;73784;-64
2021/05/23 19:44:15;;;;;;;;;0.25;0.25;;;;;18.13;42.74;100732.22;5026486;28;46126;-65
2021/05/23 19:46:43;;;;;;;;;1.75;0.50;;;;;17.74;42.50;100678.88;5034699;28;45926;-65
2021/05/23 19:49:09;;;;;;;;;0.50;0.50;;;;;18.00;42.85;100720.47;5028700;28;45549;-64
2021/05/23 19:51:44;;;;;;;;;1.50;1.50;;;;;17.78;42.46;100677.72;5048987;28;45572;-64
2021/05/23 19:54:10;;;;;;;;;1.75;0.75;;;;;18.21;43.00;100747.06;5022976;28;45735;-64
2021/05/23 19:56:53;;;;;;;;;0.75;0.75;;;;;18.03;43.06;100717.56;5032322;28;45456;-64
2021/05/23 19:59:43;;;;;;;;;0.00;0.00;;;;;17.98;43.37;100724.25;5008265;28;45514;-65
2021/05/23 20:03:21;;;;;;;;;1.00;1.00;;;;;17.96;43.15;100724.34;5004250;28;47234;-65
2021/05/23 20:06:43;;;;;;;;;1.25;0.25;;;;;17.96;43.29;100727.91;5032368;28;45520;-65
2021/05/23 20:09:41;;;;;;;;;;;;;;;;;;;;;
2021/05/23 20:12:25;;;;;;;;;2.00;1.00;;;;;17.95;44.06;100738.78;5035250;28;71128;-65
2021/05/23 20:15:19;;;;;;;;;3.00;1.00;;;;;18.00;43.98;100741.22;5028772;28;45727;-65
2021/05/23 20:18:43;;;;;;;;;1.00;0.75;;;;;17.60;43.94;100691.41;5031281;28;45615;-64
2021/05/23 20:21:30;;;;;;;;;;;;;;;;;;;;;
2021/05/23 20:24:08;;;;;;;;;;;;;;;;;;;;;
2021/05/23 20:26:42;;;;;;;;;0.25;0.25;;;;;17.69;44.60;100703.50;5020768;28;75419;-65
2021/05/23 20:29:07;;;;;;;;;0.00;0.00;;;;;17.51;44.50;100680.34;5026299;28;45838;-64
2021/05/23 20:31:33;;;;;;;;;1.25;1.25;;;;;17.38;44.77;100664.03;5027183;28;45752;-64
2021/05/23 20:34:00;;;;;;;;;0.50;0.50;;;;;17.45;44.58;100670.78;5034913;28;45752;-64
2021/05/23 20:36:28;;;;;;;;;1.00;1.00;;;;;17.82;44.68;100711.66;5031646;28;46504;-64
2021/05/23 20:38:54;;;;;;;;;2.00;1.00;;;;;17.80;44.83;100705.50;5049919;28;45680;-64
2021/05/23 20:41:19;;;;;;;;;1.00;1.00;;;;;17.40;44.59;100662.97;5055622;28;45452;-64
2021/05/23 20:43:47;;;;;;;;;1.00;1.00;;;;;17.67;44.94;100702.69;5031965;28;45514;-65
2021/05/23 20:46:38;;;;;;;;;0.50;0.50;;;;;17.53;45.01;100684.66;5055853;28;46287;-64
2021/05/23 20:49:30;;;;;;;;;1.00;1.00;;;;;17.40;45.12;100673.75;5034689;28;45766;-65
2021/05/23 20:52:44;;;;;;;;;;;;;;;;;;;;;
2021/05/23 20:54:53;;;;;;;;;1.00;1.00;;;;;17.45;45.18;100686.97;5034431;28;45558;-64
2021/05/23 20:57:28;;;;;;;;;1.25;0.25;;;;;17.57;45.11;100713.22;5034764;28;47536;-65
2021/05/23 21:00:08;;;;;;;;;;;;;;;;;;;;;
2021/05/23 21:03:21;;;;;;;;;;;;;;;;;;;;;
2021/05/23 21:06:23;;;;;;;;;1.75;1.00;;;;;17.36;45.86;100698.34;5023533;28;73382;-65
2021/05/23 21:08:58;;;;;;;;;0.50;0.50;;;;;17.46;46.05;100706.72;5035581;28;45717;-65
2021/05/23 21:11:23;;;;;;;;;1.25;1.25;;;;;17.52;46.06;100722.53;5018270;28;45472;-65
2021/05/23 21:13:49;;;;;;;;;4.00;1.25;;;;;17.51;45.84;100721.69;5047170;28;46147;-65
2021/05/23 21:16:14;;;;;;;;;3.50;1.75;;;;;17.36;46.33;100710.00;5040074;28;73226;-65
2021/05/23 21:18:40;;;;;;;;;1.00;1.00;;;;;17.41;46.28;100715.13;5042223;28;63420;-65
2021/05/23 21:21:05;;;;;;;;;1.00;1.00;;;;;17.39;46.07;100711.63;5037759;28;45743;-65
2021/05/23 21:23:30;;;;;;;;;1.00;1.00;;;;;17.42;46.43;100716.84;5036019;28;46333;-65
2021/05/23 21:25:56;;;;;;;;;2.25;1.75;;;;;17.40;46.59;100706.13;5047107;28;54245;-65
2021/05/23 21:28:21;;;;;;;;;2.00;2.00;;;;;17.40;45.86;100714.22;5042616;28;69511;-65
2021/05/23 21:30:46;;;;;;;;;1.25;1.25;;;;;17.33;45.80;100701.25;5034476;28;60743;-65
2021/05/23 21:33:13;;;;;;;;;3.00;3.00;;;;;17.39;45.99;100708.94;5035174;28;62923;-66
2021/05/23 21:35:38;;;;;;;;;2.00;2.00;;;;;17.40;45.85;100710.69;5035756;28;45412;-66
2021/05/23 21:38:04;;;;;;;;;3.00;3.00;;;;;17.35;45.80;100704.69;5034109;28;46398;-65
2021/05/23 21:40:29;;;;;;;;;4.00;4.00;;;;;17.32;45.70;100700.34;5054415;28;45741;-65
2021/05/23 21:42:55;;;;;;;;;3.00;3.00;;;;;17.36;45.81;100710.00;5040381;28;45407;-64
2021/05/23 21:45:20;;;;;;;;;3.25;2.00;;;;;17.34;45.62;100701.16;5051814;28;66557;-65
2021/05/23 21:47:46;;;;;;;;;4.00;2.00;;;;;17.28;45.71;100692.56;5039444;28;45373;-65
2021/05/23 21:50:11;;;;;;;;;4.75;2.75;;;;;17.34;45.49;100705.66;5037543;28;45359;-65
2021/05/23 21:52:37;;;;;;;;;1.75;1.75;;;;;17.29;45.26;100697.88;5039608;28;45327;-65
2021/05/23 21:55:03;;;;;;;;;2.00;2.00;;;;;17.33;45.41;100707.50;5048845;28;66522;-64
2021/05/23 21:57:28;;;;;;;;;3.00;2.00;;;;;17.33;45.02;100703.94;5046252;28;45298;-65
2021/05/23 21:59:53;;;;;;;;;3.00;2.25;;;;;17.30;45.20;100704.97;5045551;28;69557;-65
2021/05/23 22:02:19;;;;;;;;;2.00;2.00;;;;;17.27;45.12;100702.47;5059646;28;45229;-64
2021/05/23 22:04:44;;;;;;;;;1.25;1.25;;;;;17.25;44.88;100695.44;5065252;28;45212;-64
2021/05/23 22:07:10;;;;;;;;;1.50;1.50;;;;;17.19;45.24;100689.47;5038512;28;60415;-65
2021/05/23 22:09:35;;;;;;;;;2.50;2.00;;;;;17.25;45.14;100698.13;5039184;28;45222;-65
2021/05/23 22:12:00;;;;;;;;;2.00;2.00;;;;;17.25;45.22;100699.00;5040028;28;45353;-64
2021/05/23 22:14:26;;;;;;;;;3.00;1.25;;;;;17.16;44.92;100695.03;5057185;28;71897;-64
2021/05/23 22:16:51;;;;;;;;;0.25;0.25;;;;;17.13;45.27;100686.28;5043717;28;45446;-65
2021/05/23 22:19:17;;;;;;;;;1.00;1.00;;;;;17.14;44.99;100696.06;5016014;28;65720;-64
2021/05/23 22:21:42;;;;;;;;;1.00;1.00;;;;;17.15;45.02;100687.91;5050505;28;45253;-64
2021/05/23 22:24:07;;;;;;;;;1.00;1.00;;;;;17.15;44.84;100685.19;5046697;28;62980;-64
2021/05/23 22:26:33;;;;;;;;;1.00;1.00;;;;;17.17;44.92;100685.09;5048135;28;45692;-64
2021/05/23 22:28:58;;;;;;;;;0.00;0.00;;;;;17.18;44.89;100684.16;5042496;28;45318;-65
2021/05/23 22:31:24;;;;;;;;;1.00;1.00;;;;;17.14;44.99;100683.47;5042282;28;45626;-64
2021/05/23 22:33:49;;;;;;;;;0.00;0.00;;;;;17.07;44.96;100662.34;5030969;28;60566;-64
2021/05/23 22:36:15;;;;;;;;;1.00;1.00;;;;;17.12;44.91;100679.97;5062448;28;45518;-65
2021/05/23 22:38:40;;;;;;;;;1.00;0.00;;;;;17.13;44.69;100680.88;5055151;28;45360;-65
2021/05/23 22:41:07;;;;;;;;;1.00;1.00;;;;;17.08;44.76;100674.91;5041972;28;54834;-65
2021/05/23 22:43:36;;;;;;;;;3.00;0.75;;;;;17.07;44.80;100668.59;5042322;28;45258;-65
2021/05/23 22:46:02;;;;;;;;;2.00;1.00;;;;;17.05;44.45;100675.94;5042457;28;47262;-65
2021/05/23 22:48:27;;;;;;;;;1.75;0.75;;;;;16.98;44.49;100661.09;5055337;28;45331;-65
2021/05/23 22:50:53;;;;;;;;;0.25;0.25;;;;;17.01;44.68;100656.38;5041715;28;61324;-64
2021/05/23 22:53:18;;;;;;;;;0.00;0.00;;;;;16.99;44.62;100662.81;5055665;28;45293;-65
2021/05/23 22:55:46;;;;;;;;;0.75;0.75;;;;;16.92;44.61;100662.31;5055436;28;46170;-64
2021/05/23 22:58:11;;;;;;;;;0.75;0.50;;;;;16.90;44.63;100656.16;5043127;28;45450;-65
2021/05/23 23:00:49;;;;;;;;;0.00;0.00;;;;;16.87;44.51;100660.88;5056077;28;45337;-64
2021/05/23 23:03:20;;;;;;;;;1.25;0.00;;;;;16.85;44.63;100656.41;5064505;28;45248;-64
2021/05/23 23:05:45;;;;;;;;;0.00;0.00;;;;;16.85;44.41;100644.78;5042015;28;45720;-64
2021/05/23 23:08:11;;;;;;;;;3.00;0.00;;;;;16.77;44.73;100639.84;5041797;28;45398;-64
2021/05/23 23:10:37;;;;;;;;;0.00;0.00;;;;;16.80;44.67;100638.78;5024148;28;45418;-65
2021/05/23 23:13:05;;;;;;;;;0.25;0.00;;;;;16.40;44.36;100566.56;5041906;28;45542;-64
2021/05/23 23:15:30;;;;;;;;;2.25;0.00;;;;;16.76;44.72;100632.69;5016744;28;46967;-64
2021/05/23 23:17:55;;;;;;;;;0.00;0.00;;;;;16.73;44.42;100629.31;5042635;28;45673;-65
2021/05/23 23:20:21;;;;;;;;;0.50;0.50;;;;;16.36;44.36;100574.94;5040641;28;45254;-65
2021/05/23 23:22:46;;;;;;;;;0.00;0.00;;;;;16.51;44.91;100583.94;5041635;28;45618;-65
2021/05/23 23:25:12;;;;;;;;;0.00;0.00;;;;;16.49;44.63;100595.66;5047382;28;45366;-64
2021/05/23 23:27:40;;;;;;;;;0.50;0.50;;;;;16.55;44.92;100601.66;5023772;28;45396;-65
2021/05/23 23:30:05;;;;;;;;;0.25;0.25;;;;;16.35;45.02;100584.81;5030762;28;45369;-65
2021/05/23 23:32:31;;;;;;;;;0.50;0.50;;;;;16.33;44.73;100569.72;5036909;28;45250;-65
2021/05/23 23:34:56;;;;;;;;;0.00;0.00;;;;;16.60;44.95;100627.34;5023474;28;46891;-65
2021/05/23 23:37:22;;;;;;;;;0.25;0.25;;;;;16.46;44.88;100590.44;5023366;28;45293;-64
2021/05/23 23:39:47;;;;;;;;;0.00;0.00;;;;;16.54;44.89;100613.38;5041586;28;45905;-65
2021/05/23 23:42:13;;;;;;;;;0.00;0.00;;;;;16.17;44.78;100559.88;5036819;28;45622;-65
2021/05/23 23:44:38;;;;;;;;;0.25;0.25;;;;;16.49;44.97;100614.53;5032096;28;45276;-65
2021/05/23 23:47:03;;;;;;;;;1.00;0.00;;;;;16.24;44.83;100579.22;5048745;28;45415;-65
2021/05/23 23:49:29;;;;;;;;;0.25;0.25;;;;;16.37;44.86;100612.56;5023674;28;45347;-64
2021/05/23 23:51:54;;;;;;;;;0.00;0.00;;;;;16.34;45.18;100610.03;5026130;28;45370;-64
2021/05/23 23:54:20;;;;;;;;;1.00;1.00;;;;;16.25;45.28;100592.56;5051990;28;47285;-65
2021/05/23 23:56:45;;;;;;;;;0.00;0.00;;;;;15.96;44.85;100553.91;5059128;28;45355;-64
2021/05/23 23:59:11;;;;;;;;;0.00;0.00;;;;;15.93;45.12;100551.38;5040052;28;45407;-65
